Time;durP1;ratioP1;P1;durP2;ratioP2;P2;SDS_P1;SDS_P2;PMS_P1;PMS_P2;Temp;Humidity;BMP_temperature;BMP_pressure;BME280_temperature;BME280_humidity;BME280_pressure;Samples;Min_cycle;Max_cycle;Signal;HPM_P1;HPM_P2
2023/10/07 00:02:16;;;;;;;8.50;6.13;;;10.40;99.90;;;;;;5007487;28;20432;-70
2023/10/07 00:04:44;;;;;;;9.30;5.00;;;10.40;99.90;;;;;;5014457;28;20446;-70
2023/10/07 00:07:10;;;;;;;6.47;5.40;;;10.40;99.90;;;;;;5008163;28;20882;-70
2023/10/07 00:09:41;;;;;;;10.37;8.00;;;10.50;99.90;;;;;;5023778;28;20457;-71
2023/10/07 00:12:12;;;;;;;8.70;6.37;;;10.30;99.90;;;;;;5015791;28;20421;-71
2023/10/07 00:14:38;;;;;;;8.73;5.93;;;10.30;99.90;;;;;;5015655;28;20421;-70
2023/10/07 00:17:06;;;;;;;7.40;5.40;;;10.30;99.90;;;;;;5008536;28;20552;-70
2023/10/07 00:19:33;;;;;;;10.90;6.10;;;10.30;99.90;;;;;;5007645;28;20195;-71
2023/10/07 00:21:59;;;;;;;8.00;5.80;;;10.20;99.90;;;;;;5020570;28;20449;-71
2023/10/07 00:24:26;;;;;;;8.13;5.47;;;10.30;99.90;;;;;;5015319;28;20418;-72
2023/10/07 00:26:59;;;;;;;6.63;4.87;;;10.20;99.90;;;;;;5007369;28;20462;-70
2023/10/07 00:29:25;;;;;;;5.93;5.33;;;10.20;99.90;;;;;;5016778;28;20433;-71
2023/10/07 00:31:52;;;;;;;8.17;4.87;;;10.20;99.90;;;;;;5012901;28;20526;-71
2023/10/07 00:34:26;;;;;;;5.60;4.80;;;10.20;99.90;;;;;;5014739;28;20245;-71
2023/10/07 00:36:56;;;;;;;8.93;5.90;;;10.10;99.90;;;;;;5020495;28;20475;-71
2023/10/07 00:39:22;;;;;;;7.97;5.77;;;10.10;99.90;;;;;;5019516;28;20455;-71
2023/10/07 00:41:52;;;;;;;8.67;5.97;;;10.10;99.90;;;;;;5018279;28;20945;-71
2023/10/07 00:44:21;;;;;;;9.07;4.73;;;10.10;99.90;;;;;;5026536;28;20649;-71
2023/10/07 00:46:49;;;;;;;10.20;5.40;;;10.00;99.90;;;;;;5018131;28;20513;-71
2023/10/07 00:49:22;;;;;;;6.87;5.07;;;10.20;99.90;;;;;;4995598;28;20758;-71
2023/10/07 00:51:49;;;;;;;8.73;6.23;;;10.10;99.90;;;;;;5019644;28;20455;-71
2023/10/07 00:54:19;;;;;;;9.27;5.17;;;10.10;99.90;;;;;;5027826;28;20579;-71
2023/10/07 00:57:04;;;;;;;9.00;5.43;;;10.10;99.90;;;;;;5027339;28;20421;-71
2023/10/07 00:59:31;;;;;;;8.97;5.90;;;10.10;99.90;;;;;;5026432;28;20754;-71
2023/10/07 01:01:57;;;;;;;8.77;5.17;;;10.10;99.90;;;;;;5026458;28;20425;-72
2023/10/07 01:04:24;;;;;;;7.30;5.57;;;10.10;99.90;;;;;;5031650;28;20421;-71
2023/10/07 01:07:00;;;;;;;39.10;8.63;;;10.10;99.90;;;;;;5003583;28;20466;-71
2023/10/07 01:09:26;;;;;;;8.93;5.30;;;10.10;99.90;;;;;;4997743;28;20850;-71
2023/10/07 01:11:57;;;;;;;8.20;5.77;;;10.10;99.90;;;;;;5010751;28;20473;-71
2023/10/07 01:14:26;;;;;;;7.63;5.47;;;10.10;99.90;;;;;;5008195;28;20171;-71
2023/10/07 01:16:53;;;;;;;8.67;5.23;;;10.00;99.90;;;;;;5018929;28;20526;-71
2023/10/07 01:19:36;;;;;;;10.20;5.87;;;10.00;99.90;;;;;;5013565;28;20438;-71
2023/10/07 01:22:12;;;;;;;9.13;6.43;;;10.00;99.90;;;;;;5009354;28;20449;-71
2023/10/07 01:27:17;;;;;;;11.50;6.43;;;9.90;99.90;;;;;;5013781;28;20462;-71
2023/10/07 01:29:43;;;;;;;7.30;5.90;;;9.80;99.90;;;;;;5002570;28;20442;-71
2023/10/07 01:32:15;;;;;;;6.20;5.10;;;9.70;99.90;;;;;;5018559;28;20930;-70
2023/10/07 01:34:47;;;;;;;8.73;5.87;;;9.70;99.90;;;;;;5015824;28;20178;-71
2023/10/07 01:37:15;;;;;;;9.30;5.67;;;9.70;99.90;;;;;;5025751;28;20437;-71
2023/10/07 01:39:42;;;;;;;8.03;5.80;;;9.70;99.90;;;;;;5013551;28;20460;-71
2023/10/07 01:42:14;;;;;;;8.83;6.00;;;9.70;99.90;;;;;;5012150;28;20441;-71
2023/10/07 01:44:41;;;;;;;7.83;5.17;;;9.60;99.90;;;;;;4998205;28;20438;-70
2023/10/07 01:47:23;;;;;;;7.87;5.00;;;9.60;99.90;;;;;;5012647;28;20445;-70
2023/10/07 01:49:53;;;;;;;10.87;6.50;;;9.60;99.90;;;;;;5005330;28;20474;-71
2023/10/07 01:52:21;;;;;;;6.43;4.97;;;9.60;99.90;;;;;;5012114;28;20445;-69
2023/10/07 01:54:47;;;;;;;9.80;6.20;;;9.60;99.90;;;;;;5008627;28;20853;-71
2023/10/07 01:57:15;;;;;;;10.00;4.73;;;9.60;99.90;;;;;;5013738;28;20863;-70
2023/10/07 01:59:40;;;;;;;7.90;5.50;;;9.60;99.90;;;;;;5013771;28;20414;-70
2023/10/07 02:02:06;;;;;;;6.47;5.00;;;9.60;99.90;;;;;;5014061;28;20427;-70
2023/10/07 02:04:33;;;;;;;10.00;5.60;;;9.60;99.90;;;;;;5018962;28;20202;-70
2023/10/07 02:06:58;;;;;;;14.40;6.13;;;9.60;99.90;;;;;;5012816;28;20199;-70
2023/10/07 02:09:25;;;;;;;9.90;6.53;;;9.60;99.90;;;;;;5009418;28;20514;-68
2023/10/07 02:11:52;;;;;;;8.63;5.73;;;9.60;99.90;;;;;;5002223;28;20509;-69
2023/10/07 02:14:23;;;;;;;9.03;5.50;;;9.60;99.90;;;;;;5020509;28;20433;-70
2023/10/07 02:16:49;;;;;;;9.23;5.87;;;9.60;99.90;;;;;;5026385;28;20949;-70
2023/10/07 02:19:22;;;;;;;9.00;6.07;;;9.50;99.90;;;;;;5005367;28;20442;-70
2023/10/07 02:21:48;;;;;;;7.23;5.23;;;9.40;99.90;;;;;;5010269;28;20449;-70
2023/10/07 02:24:15;;;;;;;10.63;5.93;;;9.40;99.90;;;;;;5021226;28;20421;-69
2023/10/07 02:26:43;;;;;;;6.10;4.97;;;9.30;99.90;;;;;;5032892;28;20546;-70
2023/10/07 02:29:13;;;;;;;10.40;5.43;;;9.30;99.90;;;;;;5021480;28;20532;-70
2023/10/07 02:31:42;;;;;;;10.40;6.27;;;9.30;99.90;;;;;;4996830;28;21009;-70
2023/10/07 02:34:10;;;;;;;8.33;5.73;;;9.20;99.90;;;;;;5021070;28;20927;-71
2023/10/07 02:36:39;;;;;;;10.47;6.47;;;9.30;99.90;;;;;;5011895;28;20426;-70
2023/10/07 02:39:24;;;;;;;9.47;8.07;;;9.20;99.90;;;;;;5005976;28;21004;-70
2023/10/07 02:41:50;;;;;;;7.90;6.20;;;9.20;99.90;;;;;;5015690;28;20441;-70
2023/10/07 02:44:17;;;;;;;12.23;9.90;;;9.20;99.90;;;;;;5004348;28;20438;-70
2023/10/07 02:46:52;;;;;;;9.17;6.63;;;9.20;99.90;;;;;;5020431;28;20461;-70
2023/10/07 02:49:20;;;;;;;8.47;5.63;;;9.20;99.90;;;;;;5013086;28;20431;-70
2023/10/07 02:51:49;;;;;;;9.10;5.57;;;9.30;99.90;;;;;;5010161;28;20567;-69
2023/10/07 02:54:18;;;;;;;6.80;5.90;;;9.20;99.90;;;;;;5012637;28;20441;-70
2023/10/07 02:57:03;;;;;;;6.37;5.00;;;9.30;99.90;;;;;;5005007;28;21029;-70
2023/10/07 02:59:34;;;;;;;6.27;5.17;;;9.30;99.90;;;;;;5011408;28;20508;-70
2023/10/07 03:02:12;;;;;;;8.47;5.87;;;9.30;99.90;;;;;;5016010;28;20518;-70
2023/10/07 03:04:42;;;;;;;7.83;4.50;;;9.20;99.90;;;;;;5022548;28;20504;-70
2023/10/07 03:07:15;;;;;;;15.00;7.10;;;9.10;99.90;;;;;;5012455;28;21028;-70
2023/10/07 03:09:52;;;;;;;8.70;6.80;;;9.20;99.90;;;;;;4992785;28;20505;-70
2023/10/07 03:12:27;;;;;;;8.37;5.67;;;9.20;99.90;;;;;;4995446;28;21041;-70
2023/10/07 03:14:57;;;;;;;8.93;5.53;;;9.30;99.90;;;;;;5013536;28;20432;-70
2023/10/07 03:17:33;;;;;;;10.30;6.27;;;9.30;99.90;;;;;;5018882;28;20555;-71
2023/10/07 03:20:23;;;;;;;6.90;5.77;;;9.20;99.90;;;;;;5012409;28;20425;-70
2023/10/07 03:23:10;;;;;;;10.50;7.80;;;9.30;99.90;;;;;;5007989;28;20777;-69
2023/10/07 03:25:47;;;;;;;8.03;5.67;;;9.30;99.90;;;;;;5023772;28;20524;-70
2023/10/07 03:28:16;;;;;;;8.57;6.07;;;9.30;99.90;;;;;;5012809;28;20464;-70
2023/10/07 03:30:47;;;;;;;10.23;5.63;;;9.30;99.90;;;;;;5002148;28;20504;-70
2023/10/07 03:33:15;;;;;;;9.57;5.60;;;9.40;99.90;;;;;;4998864;28;20512;-70
2023/10/07 03:38:25;;;;;;;8.13;6.07;;;9.30;99.90;;;;;;5012403;28;20524;-70
2023/10/07 03:40:55;;;;;;;8.63;5.87;;;9.30;99.90;;;;;;5008033;28;20451;-70
2023/10/07 03:43:22;;;;;;;7.23;5.23;;;9.40;99.90;;;;;;5009106;28;20448;-70
2023/10/07 03:45:48;;;;;;;6.50;5.40;;;9.40;99.90;;;;;;5011966;28;20476;-70
2023/10/07 03:48:23;;;;;;;6.20;4.63;;;9.20;99.90;;;;;;5012094;28;20815;-70
2023/10/07 03:50:59;;;;;;;10.63;6.43;;;9.10;99.90;;;;;;5012151;28;20457;-70
2023/10/07 03:53:31;;;;;;;7.53;5.43;;;9.10;99.90;;;;;;5000583;28;20460;-68
2023/10/07 03:56:00;;;;;;;9.40;5.77;;;9.00;99.90;;;;;;5009286;28;21022;-70
2023/10/07 03:58:27;;;;;;;7.67;5.90;;;9.00;99.90;;;;;;5002864;28;20935;-69
2023/10/07 04:00:54;;;;;;;9.20;6.50;;;8.90;99.90;;;;;;5015731;28;20470;-70
2023/10/07 04:03:23;;;;;;;6.20;4.87;;;8.90;99.90;;;;;;5010685;28;20430;-70
2023/10/07 04:05:49;;;;;;;9.70;5.73;;;8.80;99.90;;;;;;5017311;28;20824;-70
2023/10/07 04:08:18;;;;;;;8.77;4.87;;;8.80;99.90;;;;;;5011759;28;20442;-70
2023/10/07 04:10:45;;;;;;;8.80;6.17;;;8.80;99.90;;;;;;5011911;28;20565;-70
2023/10/07 04:13:21;;;;;;;7.10;5.87;;;8.80;99.90;;;;;;5013559;28;20430;-69
2023/10/07 04:15:53;;;;;;;7.00;5.00;;;8.80;99.90;;;;;;5017034;28;20491;-70
2023/10/07 04:18:26;;;;;;;6.63;5.10;;;8.80;99.90;;;;;;5009859;28;20887;-70
2023/10/07 04:20:57;;;;;;;10.73;6.20;;;8.70;99.90;;;;;;5011638;28;20502;-70
2023/10/07 04:23:25;;;;;;;7.37;5.60;;;8.70;99.90;;;;;;5009698;28;20487;-70
2023/10/07 04:26:08;;;;;;;7.37;4.80;;;8.70;99.90;;;;;;5011376;28;20456;-70
2023/10/07 04:28:34;;;;;;;6.30;4.83;;;8.70;99.90;;;;;;5013556;28;20460;-70
2023/10/07 04:31:00;;;;;;;8.27;4.50;;;8.60;99.90;;;;;;5018729;28;21161;-70
2023/10/07 04:33:53;;;;;;;7.10;4.93;;;8.50;99.90;;;;;;5004805;28;20230;-70
2023/10/07 04:36:18;;;;;;;5.90;4.80;;;8.60;99.90;;;;;;5002067;28;20422;-70
2023/10/07 04:38:53;;;;;;;10.20;5.07;;;8.60;99.90;;;;;;5009664;28;20965;-70
2023/10/07 04:43:50;;;;;;;10.07;4.90;;;8.50;99.90;;;;;;5011024;28;20436;-69
2023/10/07 04:46:23;;;;;;;6.03;5.40;;;8.50;99.90;;;;;;5013204;28;20503;-70
2023/10/07 04:49:12;;;;;;;8.27;5.90;;;8.60;99.90;;;;;;5026743;28;20967;-70
2023/10/07 04:54:07;;;;;;;7.73;5.17;;;8.70;99.90;;;;;;5007062;28;20501;-70
2023/10/07 04:56:32;;;;;;;7.53;5.50;;;8.80;99.90;;;;;;5018115;28;20433;-70
2023/10/07 04:59:09;;;;;;;9.90;7.10;;;8.80;99.90;;;;;;5017773;28;20170;-70
2023/10/07 05:01:35;;;;;;;7.60;5.80;;;8.90;99.90;;;;;;5024512;28;20189;-69
2023/10/07 05:04:04;;;;;;;8.80;4.93;;;8.90;99.90;;;;;;5012705;28;20445;-70
2023/10/07 05:06:37;;;;;;;7.77;6.27;;;8.80;99.90;;;;;;5017670;28;20444;-69
2023/10/07 05:09:09;;;;;;;8.10;5.40;;;8.80;99.90;;;;;;5004455;28;20445;-69
2023/10/07 05:11:45;;;;;;;8.40;5.77;;;8.70;99.90;;;;;;5013843;28;20465;-70
2023/10/07 05:14:15;;;;;;;8.37;5.60;;;8.60;99.90;;;;;;5010142;28;20465;-69
2023/10/07 05:16:40;;;;;;;7.80;6.00;;;8.70;99.90;;;;;;5007224;28;20437;-70
2023/10/07 05:19:09;;;;;;;10.03;6.47;;;8.60;99.90;;;;;;5037536;22;20832;-76
2023/10/07 05:21:37;;;;;;;7.70;5.63;;;8.50;99.90;;;;;;5015198;28;20189;-75
2023/10/07 05:24:04;;;;;;;7.67;5.50;;;8.40;99.90;;;;;;5009212;28;20499;-76
2023/10/07 05:26:31;;;;;;;9.10;5.20;;;8.30;99.90;;;;;;5015535;28;20477;-76
2023/10/07 05:29:02;;;;;;;7.97;5.47;;;8.30;99.90;;;;;;5020489;28;20446;-76
2023/10/07 05:31:30;;;;;;;12.53;5.70;;;8.20;99.90;;;;;;5014526;28;20867;-76
2023/10/07 05:33:59;;;;;;;11.07;6.20;;;8.30;99.90;;;;;;5012791;28;20430;-76
2023/10/07 05:36:29;;;;;;;9.80;5.10;;;8.20;99.90;;;;;;4995322;28;20814;-75
2023/10/07 05:38:56;;;;;;;6.93;4.67;;;8.20;99.90;;;;;;4999965;28;20979;-76
2023/10/07 05:41:25;;;;;;;9.70;5.70;;;8.20;99.90;;;;;;5004974;28;20465;-76
2023/10/07 05:43:51;;;;;;;8.63;5.53;;;8.20;99.90;;;;;;5004721;28;20444;-76
2023/10/07 05:46:20;;;;;;;9.77;6.00;;;8.30;99.90;;;;;;5009922;28;20439;-76
2023/10/07 05:48:47;;;;;;;9.23;5.63;;;8.30;99.90;;;;;;5016582;28;20577;-70
2023/10/07 05:51:13;;;;;;;6.13;5.40;;;8.40;99.90;;;;;;5009250;28;20741;-70
2023/10/07 05:53:40;;;;;;;8.70;5.50;;;8.40;99.90;;;;;;5004852;28;20520;-75
2023/10/07 05:56:07;;;;;;;9.23;6.10;;;8.40;99.90;;;;;;5005283;28;20697;-75
2023/10/07 05:58:37;;;;;;;8.67;6.17;;;8.40;99.90;;;;;;5009321;28;20466;-76
2023/10/07 06:01:03;;;;;;;7.23;5.50;;;8.40;99.90;;;;;;5003960;28;20442;-76
2023/10/07 06:03:30;;;;;;;10.60;6.07;;;8.50;99.90;;;;;;5004545;28;20457;-76
2023/10/07 06:05:59;;;;;;;7.47;6.27;;;8.50;99.90;;;;;;5015875;28;20452;-76
2023/10/07 06:08:28;;;;;;;11.57;6.30;;;8.60;99.90;;;;;;5008870;28;20471;-75
2023/10/07 06:10:56;;;;;;;10.17;6.53;;;8.80;99.90;;;;;;4995174;28;20504;-76
2023/10/07 06:13:28;;;;;;;8.27;6.40;;;9.00;99.90;;;;;;4997697;28;20435;-76
2023/10/07 06:15:55;;;;;;;7.37;6.60;;;9.00;99.90;;;;;;4992591;28;20478;-75
2023/10/07 06:18:22;;;;;;;8.03;5.70;;;9.30;99.90;;;;;;5002267;28;20816;-76
2023/10/07 06:20:48;;;;;;;9.57;7.03;;;9.50;99.90;;;;;;5011408;28;20421;-76
2023/10/07 06:23:15;;;;;;;6.90;5.90;;;9.70;99.90;;;;;;5009084;28;20434;-74
2023/10/07 06:25:51;;;;;;;16.03;6.60;;;9.90;99.90;;;;;;5017350;28;20474;-75
2023/10/07 06:31:14;;;;;;;10.30;6.90;;;10.10;99.90;;;;;;5005261;28;20469;-75
2023/10/07 06:33:42;;;;;;;7.97;5.30;;;10.30;99.90;;;;;;5010549;28;20447;-75
2023/10/07 06:36:12;;;;;;;9.00;5.30;;;10.60;99.90;;;;;;5021364;28;20428;-75
2023/10/07 06:38:39;;;;;;;6.00;5.40;;;10.80;99.90;;;;;;4998859;28;20466;-75
2023/10/07 06:41:10;;;;;;;7.20;6.50;;;11.00;99.90;;;;;;5013212;28;20445;-75
2023/10/07 06:43:43;;;;;;;8.67;6.67;;;11.30;99.90;;;;;;5014806;28;20529;-75
2023/10/07 06:46:12;;;;;;;11.17;6.70;;;11.50;99.90;;;;;;5010917;28;20437;-75
2023/10/07 06:48:39;;;;;;;10.70;7.90;;;11.90;99.90;;;;;;5003405;28;20460;-75
2023/10/07 06:51:06;;;;;;;12.13;8.20;;;12.10;99.90;;;;;;5011737;28;20489;-75
2023/10/07 06:53:32;;;;;;;8.80;7.13;;;12.50;99.90;;;;;;5005850;28;20440;-75
2023/10/07 06:56:01;;;;;;;9.63;6.93;;;12.80;99.90;;;;;;5006658;28;20445;-76
2023/10/07 06:58:27;;;;;;;9.47;6.07;;;13.10;99.90;;;;;;5003273;28;20459;-74
2023/10/07 07:01:17;;;;;;;9.30;6.67;;;13.50;99.90;;;;;;5019007;28;20426;-72
2023/10/07 07:03:44;;;;;;;11.03;7.90;;;13.90;99.90;;;;;;5015945;28;20535;-74
2023/10/07 07:06:17;;;;;;;7.33;6.50;;;14.40;99.90;;;;;;5020225;28;20869;-73
2023/10/07 07:08:45;;;;;;;8.40;6.30;;;14.60;99.90;;;;;;5009360;28;20511;-74
2023/10/07 07:11:12;;;;;;;9.27;6.67;;;14.80;99.90;;;;;;5001568;28;20890;-69
2023/10/07 07:13:40;;;;;;;6.40;5.50;;;15.20;99.90;;;;;;5004327;28;21027;-76
2023/10/07 07:16:13;;;;;;;8.60;5.13;;;15.30;99.90;;;;;;5011666;28;20429;-77
2023/10/07 07:18:39;;;;;;;8.33;6.17;;;15.50;99.90;;;;;;4996163;28;20468;-75
2023/10/07 07:21:31;;;;;;;9.80;5.97;;;15.80;99.90;;;;;;5012764;28;20452;-66
2023/10/07 07:23:58;;;;;;;9.73;6.60;;;15.80;99.90;;;;;;4997557;28;20477;-66
2023/10/07 07:26:23;;;;;;;8.37;5.73;;;15.70;99.90;;;;;;5002063;28;20465;-66
2023/10/07 07:28:54;;;;;;;7.00;5.70;;;15.60;99.90;;;;;;5006691;28;20497;-66
2023/10/07 07:31:25;;;;;;;8.73;6.13;;;15.50;99.90;;;;;;5011708;28;20645;-67
2023/10/07 07:33:51;;;;;;;7.00;5.77;;;15.40;99.90;;;;;;5005426;28;21000;-66
2023/10/07 07:36:37;;;;;;;7.83;6.63;;;15.30;99.90;;;;;;5012162;28;20422;-67
2023/10/07 07:39:18;;;;;;;11.53;5.70;;;15.70;99.90;;;;;;5003861;28;20229;-67
2023/10/07 07:41:55;;;;;;;6.67;5.77;;;16.00;99.90;;;;;;5013018;28;20803;-66
2023/10/07 07:44:33;;;;;;;6.73;5.90;;;16.60;99.90;;;;;;4999465;28;20446;-66
2023/10/07 07:47:02;;;;;;;11.57;6.33;;;17.10;99.90;;;;;;5000611;28;20446;-66
2023/10/07 07:49:38;;;;;;;23.33;7.30;;;17.60;99.90;;;;;;5004255;28;20462;-67
2023/10/07 07:52:08;;;;;;;9.47;6.20;;;17.90;99.90;;;;;;5006939;28;20556;-66
2023/10/07 07:54:33;;;;;;;8.40;6.03;;;18.60;99.90;;;;;;5011826;28;20514;-73
2023/10/07 07:57:04;;;;;;;6.00;5.40;;;19.00;99.90;;;;;;5001944;28;20886;-72
2023/10/07 07:59:32;;;;;;;9.43;5.80;;;18.90;99.90;;;;;;5001522;28;20247;-73
2023/10/07 08:02:35;;;;;;;7.33;5.30;;;19.50;98.50;;;;;;5014723;28;20951;-72
2023/10/07 08:04:50;;;;;;;7.10;5.03;;;19.90;95.40;;;;;;5004845;28;20440;-72
2023/10/07 08:09:46;;;;;;;6.93;4.57;;;20.30;94.50;;;;;;5010719;28;20175;-72
2023/10/07 08:12:18;;;;;;;5.20;4.37;;;21.40;92.20;;;;;;5016314;28;20440;-73
2023/10/07 08:14:46;;;;;;;7.33;5.43;;;22.70;87.10;;;;;;4992250;28;20517;-72
2023/10/07 08:17:12;;;;;;;6.20;4.87;;;23.70;76.50;;;;;;4993185;28;20944;-73
2023/10/07 08:19:38;;;;;;;6.53;4.77;;;24.10;73.40;;;;;;5000422;28;20457;-73
2023/10/07 08:22:12;;;;;;;7.47;5.10;;;24.10;68.20;;;;;;5017586;28;20440;-73
2023/10/07 08:24:39;;;;;;;7.20;5.20;;;23.80;68.30;;;;;;5022690;28;21012;-73
2023/10/07 08:27:09;;;;;;;8.40;5.37;;;23.50;67.40;;;;;;5030818;28;20922;-72
2023/10/07 08:29:40;;;;;;;7.40;5.30;;;23.60;66.70;;;;;;5035440;28;20508;-73
2023/10/07 08:32:34;;;;;;;7.40;4.97;;;23.20;63.70;;;;;;5010205;28;20842;-72
2023/10/07 08:34:59;;;;;;;6.00;4.73;;;23.10;63.20;;;;;;5007588;28;20943;-72
2023/10/07 08:37:32;;;;;;;6.47;4.93;;;24.10;62.40;;;;;;5021323;28;20452;-73
2023/10/07 08:40:09;;;;;;;5.47;4.77;;;25.30;59.60;;;;;;5010253;28;20207;-73
2023/10/07 08:42:37;;;;;;;5.50;4.77;;;27.00;56.00;;;;;;5020707;28;20452;-73
2023/10/07 08:45:14;;;;;;;5.00;4.20;;;28.50;49.20;;;;;;5030356;28;20455;-72
2023/10/07 08:47:49;;;;;;;5.23;4.73;;;26.80;48.40;;;;;;5032783;28;20429;-72
2023/10/07 08:50:19;;;;;;;4.90;4.00;;;25.90;48.90;;;;;;5011455;28;20501;-72
2023/10/07 08:52:44;;;;;;;6.43;4.17;;;24.90;47.80;;;;;;5016035;28;20464;-72
2023/10/07 08:55:10;;;;;;;6.60;5.20;;;24.30;47.00;;;;;;5026745;28;20445;-72
2023/10/07 08:57:36;;;;;;;4.07;3.40;;;23.70;48.60;;;;;;5031917;28;20548;-73
2023/10/07 09:00:11;;;;;;;4.90;3.40;;;23.00;48.60;;;;;;5009042;28;20190;-73
2023/10/07 09:02:39;;;;;;;4.27;3.87;;;22.90;48.70;;;;;;4997866;28;20444;-72
2023/10/07 09:05:16;;;;;;;4.53;3.40;;;23.70;48.20;;;;;;5013281;28;20825;-72
2023/10/07 09:07:48;;;;;;;6.57;4.33;;;24.20;48.10;;;;;;5015515;28;20468;-72
2023/10/07 09:10:15;;;;;;;4.57;4.07;;;23.20;48.50;;;;;;5021959;28;20469;-72
2023/10/07 09:12:56;;;;;;;5.73;4.03;;;22.80;49.30;;;;;;5018010;28;20445;-72
2023/10/07 09:15:29;;;;;;;5.10;3.67;;;22.40;50.00;;;;;;5013076;28;20430;-72
2023/10/07 09:18:03;;;;;;;5.07;3.70;;;22.60;51.40;;;;;;5026192;28;20828;-72
2023/10/07 09:20:31;;;;;;;4.87;4.40;;;22.00;54.60;;;;;;5018305;28;20443;-73
2023/10/07 09:23:07;;;;;;;4.50;3.80;;;21.40;55.80;;;;;;5016629;28;20437;-72
2023/10/07 09:25:32;;;;;;;5.80;4.33;;;21.50;56.40;;;;;;5026203;28;20428;-72
2023/10/07 09:28:01;;;;;;;5.77;4.03;;;21.40;56.50;;;;;;5033912;28;20440;-71
2023/10/07 09:33:14;;;;;;;5.17;3.77;;;22.00;55.30;;;;;;5002807;28;20438;-72
2023/10/07 09:35:43;;;;;;;4.30;3.90;;;21.90;53.30;;;;;;5016993;28;20452;-72
2023/10/07 09:38:27;;;;;;;8.10;4.27;;;21.50;54.50;;;;;;5018559;28;20438;-72
2023/10/07 09:43:26;;;;;;;5.03;3.93;;;21.50;55.60;;;;;;5006062;28;20520;-72
2023/10/07 09:45:53;;;;;;;5.77;4.20;;;21.40;55.70;;;;;;5025675;28;20425;-72
2023/10/07 09:48:23;;;;;;;7.87;5.27;;;21.50;55.50;;;;;;5034158;28;20456;-72
2023/10/07 09:50:55;;;;;;;8.50;4.93;;;21.20;56.40;;;;;;5033887;28;20467;-72
2023/10/07 09:53:35;;;;;;;4.60;4.13;;;21.00;58.20;;;;;;5024378;28;20437;-71
2023/10/07 09:56:38;;;;;;;6.77;4.00;;;20.90;58.00;;;;;;5012103;28;20528;-71
2023/10/07 09:59:35;;;;;;;6.53;4.27;;;20.60;58.00;;;;;;5001357;28;20453;-72
2023/10/07 10:02:16;;;;;;;5.67;4.07;;;20.60;57.20;;;;;;5005225;28;20456;-72
2023/10/07 10:05:06;;;;;;;5.30;4.47;;;20.50;58.60;;;;;;5013938;28;20437;-72
2023/10/07 10:08:19;;;;;;;6.40;3.90;;;20.50;59.00;;;;;;5032588;28;20448;-72
2023/10/07 10:10:49;;;;;;;4.53;3.60;;;20.50;56.60;;;;;;4972400;28;20945;-73
2023/10/07 10:13:29;;;;;;;6.03;3.90;;;20.50;56.80;;;;;;4993826;28;20521;-72
2023/10/07 10:16:00;;;;;;;6.20;4.37;;;20.50;57.50;;;;;;5007690;28;20422;-72
2023/10/07 10:18:40;;;;;;;6.90;3.07;;;20.70;55.90;;;;;;5013448;28;20959;-71
2023/10/07 10:21:09;;;;;;;6.27;3.97;;;20.90;55.40;;;;;;5013630;28;20429;-71
2023/10/07 10:23:37;;;;;;;4.10;3.70;;;21.20;56.30;;;;;;4999130;28;20449;-72
2023/10/07 10:26:20;;;;;;;5.27;3.40;;;21.20;55.90;;;;;;5014964;28;20426;-71
2023/10/07 10:29:06;;;;;;;6.30;3.77;;;21.30;54.50;;;;;;5009190;28;20457;-71
2023/10/07 10:31:34;;;;;;;9.13;7.17;;;21.50;54.10;;;;;;5023233;28;20461;-72
2023/10/07 10:34:08;;;;;;;7.40;4.73;;;21.70;54.60;;;;;;5021320;28;20516;-72
2023/10/07 10:36:43;;;;;;;4.80;4.17;;;21.70;54.80;;;;;;5023554;28;20926;-72
2023/10/07 10:39:26;;;;;;;5.43;4.20;;;21.80;55.10;;;;;;5032807;28;20490;-72
2023/10/07 10:41:56;;;;;;;4.27;3.87;;;22.10;54.80;;;;;;5008773;28;20465;-73
2023/10/07 10:44:22;;;;;;;5.80;3.60;;;22.40;52.70;;;;;;5000706;28;20461;-74
2023/10/07 10:46:49;;;;;;;4.20;3.80;;;22.50;51.40;;;;;;5014340;28;20430;-72
2023/10/07 10:49:17;;;;;;;3.33;3.03;;;24.00;49.90;;;;;;5020260;28;20345;-72
2023/10/07 10:51:45;;;;;;;6.60;3.60;;;25.50;48.20;;;;;;5032743;28;20463;-72
2023/10/07 10:54:13;;;;;;;4.80;3.80;;;24.80;46.80;;;;;;5025616;28;20441;-72
2023/10/07 10:56:58;;;;;;;4.97;3.57;;;25.30;46.60;;;;;;5004500;28;20438;-72
2023/10/07 10:59:42;;;;;;;6.30;4.37;;;26.70;44.90;;;;;;5012916;28;20418;-72
2023/10/07 11:02:17;;;;;;;4.40;4.00;;;26.90;44.20;;;;;;5013028;28;20461;-72
2023/10/07 11:04:44;;;;;;;6.73;4.27;;;27.10;42.20;;;;;;5000918;28;20452;-72
2023/10/07 11:07:09;;;;;;;7.67;5.80;;;27.20;42.40;;;;;;5016610;28;20884;-72
2023/10/07 11:09:38;;;;;;;5.53;3.97;;;27.10;42.90;;;;;;5006004;28;20554;-72
2023/10/07 11:12:16;;;;;;;4.47;3.80;;;26.30;42.90;;;;;;5007671;28;20210;-72
2023/10/07 11:14:43;;;;;;;4.40;4.00;;;26.30;42.90;;;;;;5001924;28;20992;-71
2023/10/07 11:17:09;;;;;;;4.57;4.13;;;25.50;44.30;;;;;;5016442;28;20428;-72
2023/10/07 11:19:51;;;;;;;5.00;3.90;;;25.20;44.50;;;;;;5015664;28;20968;-72
2023/10/07 11:22:21;;;;;;;8.40;5.70;;;24.70;45.40;;;;;;5020340;28;20445;-72
2023/10/07 11:24:50;;;;;;;4.57;4.00;;;24.20;47.00;;;;;;5007235;28;20449;-72
2023/10/07 11:27:23;;;;;;;5.83;3.87;;;22.90;48.60;;;;;;5009453;28;20449;-72
2023/10/07 11:29:59;;;;;;;4.87;3.53;;;22.30;49.60;;;;;;5032213;28;20491;-72
2023/10/07 11:32:31;;;;;;;4.47;4.00;;;22.50;50.00;;;;;;5029887;28;20782;-72
2023/10/07 11:34:59;;;;;;;5.27;4.77;;;22.80;50.00;;;;;;5019239;28;20506;-72
2023/10/07 11:37:27;;;;;;;5.00;4.10;;;23.10;49.50;;;;;;5021825;28;20437;-72
2023/10/07 11:39:53;;;;;;;5.23;4.17;;;23.10;49.30;;;;;;5010632;28;20520;-72
2023/10/07 11:42:21;;;;;;;5.50;5.00;;;22.90;49.70;;;;;;5020149;28;20469;-72
2023/10/07 11:44:56;;;;;;;5.37;4.20;;;22.40;50.40;;;;;;5005152;28;20442;-72
2023/10/07 11:47:23;;;;;;;4.50;4.10;;;22.60;50.30;;;;;;5010431;28;20453;-72
2023/10/07 11:49:49;;;;;;;6.77;4.70;;;22.40;51.00;;;;;;5025039;28;20425;-71
2023/10/07 11:52:17;;;;;;;3.67;3.30;;;22.20;51.40;;;;;;5025143;28;20462;-72
2023/10/07 11:54:43;;;;;;;5.10;4.60;;;22.20;51.30;;;;;;5004384;28;20460;-71
2023/10/07 11:57:09;;;;;;;7.53;5.33;;;22.00;51.40;;;;;;5019983;28;20844;-71
2023/10/07 11:59:40;;;;;;;7.83;5.60;;;22.10;51.50;;;;;;5023674;28;20541;-71
2023/10/07 12:02:09;;;;;;;6.60;5.07;;;22.10;52.10;;;;;;5027645;28;20437;-72
2023/10/07 12:04:47;;;;;;;5.30;4.57;;;22.10;53.10;;;;;;5020763;28;20930;-72
2023/10/07 12:07:14;;;;;;;5.97;4.40;;;22.00;53.40;;;;;;5003780;28;20745;-72
2023/10/07 12:09:41;;;;;;;7.60;4.70;;;22.30;53.20;;;;;;5012023;28;20504;-72
2023/10/07 12:12:10;;;;;;;6.10;4.37;;;22.20;53.20;;;;;;5018281;28;20460;-72
2023/10/07 12:14:36;;;;;;;8.70;4.73;;;22.00;53.80;;;;;;5023079;28;20430;-71
2023/10/07 12:17:04;;;;;;;4.63;4.13;;;21.90;53.80;;;;;;5026303;28;20475;-72
2023/10/07 12:19:30;;;;;;;4.93;4.50;;;21.70;54.90;;;;;;5023400;28;20419;-72
2023/10/07 12:21:57;;;;;;;4.83;4.30;;;21.90;55.20;;;;;;5010494;28;20433;-72
2023/10/07 12:24:22;;;;;;;6.30;4.70;;;22.00;55.40;;;;;;5011555;28;20778;-73
2023/10/07 12:26:51;;;;;;;6.23;4.57;;;22.10;55.80;;;;;;5005277;28;20529;-72
2023/10/07 12:29:20;;;;;;;4.93;4.10;;;22.20;55.70;;;;;;5017178;28;20567;-71
2023/10/07 12:31:47;;;;;;;6.70;5.60;;;22.10;55.60;;;;;;5031534;28;20456;-71
2023/10/07 12:34:15;;;;;;;8.70;6.03;;;22.10;56.30;;;;;;5031252;28;20503;-71
2023/10/07 12:36:40;;;;;;;4.23;3.83;;;22.00;56.50;;;;;;5003341;28;20437;-71
2023/10/07 12:39:10;;;;;;;5.10;4.03;;;21.90;56.50;;;;;;5017918;28;20463;-71
2023/10/07 12:41:39;;;;;;;5.70;4.40;;;21.70;56.50;;;;;;5022999;28;20193;-72
2023/10/07 12:44:08;;;;;;;6.73;4.10;;;21.70;56.60;;;;;;5031266;28;20459;-72
2023/10/07 12:46:35;;;;;;;7.07;4.63;;;21.60;57.40;;;;;;5014151;28;20445;-73
2023/10/07 12:49:01;;;;;;;6.87;3.93;;;21.90;57.60;;;;;;5014628;28;20560;-72
2023/10/07 12:51:27;;;;;;;7.77;5.00;;;22.00;56.50;;;;;;5007571;28;20532;-72
2023/10/07 12:53:56;;;;;;;5.03;4.20;;;22.20;56.70;;;;;;5013215;28;20655;-72
2023/10/07 12:56:22;;;;;;;6.27;4.30;;;22.30;56.40;;;;;;5012072;28;20175;-72
2023/10/07 12:58:48;;;;;;;4.70;4.03;;;22.80;55.70;;;;;;5015327;28;20548;-72
2023/10/07 13:01:14;;;;;;;6.10;4.90;;;23.00;54.90;;;;;;5027879;28;20499;-72
2023/10/07 13:03:43;;;;;;;8.47;5.40;;;23.60;53.80;;;;;;5023583;28;20572;-72
2023/10/07 13:06:10;;;;;;;5.97;5.37;;;23.80;53.40;;;;;;5009036;28;20447;-72
2023/10/07 13:08:38;;;;;;;6.90;5.83;;;23.20;53.50;;;;;;5004640;28;20487;-71
2023/10/07 13:11:18;;;;;;;9.33;5.33;;;22.70;55.00;;;;;;5026177;28;20448;-73
2023/10/07 13:13:46;;;;;;;6.30;4.83;;;22.60;54.60;;;;;;5023522;28;20437;-71
2023/10/07 13:16:13;;;;;;;5.67;4.43;;;22.50;55.90;;;;;;5026380;28;20425;-71
2023/10/07 13:18:44;;;;;;;5.80;4.77;;;22.50;55.20;;;;;;5019267;28;20465;-72
2023/10/07 13:21:19;;;;;;;6.90;5.33;;;22.50;55.90;;;;;;5007973;28;20438;-72
2023/10/07 13:23:47;;;;;;;6.30;4.97;;;22.90;55.30;;;;;;5018556;28;20416;-72
2023/10/07 13:26:14;;;;;;;7.80;7.00;;;23.70;53.70;;;;;;5034412;28;20487;-71
2023/10/07 13:28:40;;;;;;;7.83;4.63;;;24.70;51.60;;;;;;5013894;28;20495;-72
2023/10/07 13:31:09;;;;;;;7.40;4.40;;;25.50;50.10;;;;;;5025781;28;20459;-72